createdAt,value
2018-10-16T00:01:09.118Z,43.42
2018-10-16T00:03:37.496Z,41.00
2018-10-16T00:06:05.872Z,41.10
2018-10-16T00:08:34.245Z,38.50
2018-10-16T00:11:02.624Z,43.47
2018-10-16T00:13:31.001Z,41.42
2018-10-16T00:15:59.375Z,43.08
2018-10-16T00:18:27.752Z,39.85
2018-10-16T00:20:56.132Z,41.57
2018-10-16T00:23:24.502Z,38.73
2018-10-16T00:25:52.879Z,37.25
2018-10-16T00:28:21.256Z,40.80
2018-10-16T00:30:49.648Z,40.67
2018-10-16T00:33:18.026Z,45.15
2018-10-16T00:35:46.404Z,39.10
2018-10-16T00:38:14.784Z,47.67
2018-10-16T00:40:43.163Z,38.73
2018-10-16T00:43:11.539Z,41.20
2018-10-16T00:45:39.912Z,39.17
2018-10-16T00:48:08.289Z,42.17
2018-10-16T00:50:36.666Z,33.50
2018-10-16T00:53:05.042Z,38.47
2018-10-16T00:55:33.413Z,39.10
2018-10-16T00:58:01.787Z,35.57
2018-10-16T01:00:30.688Z,37.53
2018-10-16T01:02:59.060Z,38.13
2018-10-16T01:05:27.448Z,43.35
2018-10-16T01:07:55.822Z,39.37
2018-10-16T01:10:24.195Z,35.07
2018-10-16T01:12:52.572Z,40.93
2018-10-16T01:15:20.943Z,38.55
2018-10-16T01:17:49.317Z,34.50
2018-10-16T01:20:17.693Z,33.33
2018-10-16T01:22:46.074Z,39.20
2018-10-16T01:25:14.468Z,34.27
2018-10-16T01:27:42.829Z,32.80
2018-10-16T01:30:11.255Z,36.33
2018-10-16T01:32:39.635Z,33.13
2018-10-16T01:35:08.006Z,41.60
2018-10-16T01:37:36.386Z,39.10
2018-10-16T01:40:04.771Z,39.90
2018-10-16T01:42:33.261Z,54.20
2018-10-16T01:45:01.643Z,59.05
2018-10-16T01:47:30.014Z,60.83
2018-10-16T01:49:58.403Z,56.20
2018-10-16T01:52:26.783Z,64.07
2018-10-16T01:54:55.164Z,62.88
2018-10-16T01:57:23.543Z,60.33
2018-10-16T01:59:52.222Z,63.30
2018-10-16T02:02:20.602Z,56.83
2018-10-16T02:04:49.095Z,50.87
2018-10-16T02:07:17.480Z,51.37
2018-10-16T02:09:45.857Z,49.30
2018-10-16T02:12:14.705Z,48.77
2018-10-16T02:14:43.093Z,51.25
2018-10-16T02:17:11.453Z,48.57
2018-10-16T02:19:39.826Z,48.77
2018-10-16T02:22:08.202Z,45.33
2018-10-16T02:24:36.577Z,47.60
2018-10-16T02:27:04.954Z,33.70
2018-10-16T02:29:33.330Z,32.37
2018-10-16T02:32:01.700Z,28.87
2018-10-16T02:34:30.075Z,37.83
2018-10-16T02:36:58.449Z,35.77
2018-10-16T02:39:26.825Z,32.13
2018-10-16T02:41:55.617Z,32.83
2018-10-16T18:46:08.877Z,74.45
2018-10-16T18:48:39.296Z,111.95
2018-10-16T18:51:11.261Z,74.55
2018-10-16T18:53:39.544Z,45.38
2018-10-16T18:56:10.765Z,49.70
2018-10-16T18:58:38.160Z,49.85
2018-10-16T19:01:06.509Z,50.88
2018-10-16T19:03:34.926Z,50.12
2018-10-16T19:06:03.273Z,54.40
2018-10-16T19:08:31.035Z,50.95
2018-10-16T19:11:00.115Z,46.90
2018-10-16T19:13:31.345Z,57.65
2018-10-16T19:15:58.719Z,61.88
2018-10-16T19:18:27.073Z,57.45
2018-10-16T19:20:55.770Z,62.83
2018-10-16T19:23:24.591Z,63.05
2018-10-16T19:25:52.936Z,67.40
2018-10-16T19:28:21.268Z,97.37
2018-10-16T19:30:49.720Z,92.28
2018-10-16T19:33:18.054Z,76.85
2018-10-16T19:35:46.397Z,76.57
2018-10-16T19:38:14.148Z,77.60
2018-10-16T19:40:43.309Z,76.72
2018-10-16T19:43:13.742Z,80.60
2018-10-16T19:45:43.014Z,88.07
2018-10-16T19:48:14.740Z,87.20
2018-10-16T19:50:43.079Z,79.78
2018-10-16T19:53:10.825Z,74.00
2018-10-16T19:55:39.748Z,62.50
2018-10-16T19:58:08.368Z,48.03
2018-10-16T20:00:36.700Z,70.68
2018-10-16T20:03:05.091Z,130.40
2018-10-16T20:05:33.404Z,68.60
2018-10-16T20:08:01.747Z,45.22
2018-10-16T20:10:30.322Z,48.90
2018-10-16T20:12:58.427Z,53.20
2018-10-16T20:15:26.800Z,56.17
2018-10-16T20:17:55.210Z,57.97
2018-10-16T20:20:23.608Z,56.35
2018-10-16T20:22:51.919Z,61.17
2018-10-16T20:25:20.440Z,61.40
2018-10-16T20:27:48.791Z,58.72
2018-10-16T20:30:16.549Z,60.80
2018-10-16T20:32:45.509Z,55.90
2018-10-16T20:35:13.854Z,57.30
2018-10-16T20:37:41.613Z,59.80
2018-10-16T20:40:09.954Z,63.23
2018-10-16T20:42:38.287Z,59.47
2018-10-16T20:45:07.338Z,57.07
2018-10-16T20:47:35.196Z,54.53
2018-10-16T20:50:04.046Z,56.03
2018-10-16T20:52:32.450Z,66.53
2018-10-16T20:55:00.240Z,56.27
2018-10-16T20:57:29.195Z,56.03
2018-10-16T20:59:57.471Z,54.47
2018-10-16T21:02:25.863Z,52.70
2018-10-16T21:04:54.903Z,59.20
2018-10-16T21:07:23.189Z,50.07
2018-10-16T21:09:50.986Z,40.50
2018-10-16T21:12:19.935Z,44.80
2018-10-16T21:14:47.782Z,53.03
2018-10-16T21:17:16.812Z,57.07
2018-10-16T21:19:45.173Z,42.93
2018-10-16T21:22:13.639Z,48.27
2018-10-16T21:24:41.851Z,58.50
2018-10-16T21:27:10.368Z,50.43
2018-10-16T21:29:38.773Z,54.93
2018-10-16T21:32:07.111Z,58.58
2018-10-16T21:34:34.917Z,61.30
2018-10-16T21:37:03.875Z,76.73
2018-10-16T21:39:32.170Z,79.67
2018-10-16T21:41:59.926Z,78.25
2018-10-16T21:44:28.847Z,75.80
2018-10-16T21:46:56.790Z,73.83
2018-10-16T21:49:25.514Z,74.07
2018-10-16T21:51:53.847Z,69.47
